createdAt,value
2019-01-13T00:14:59.534Z,87.9
2019-01-13T00:30:19.775Z,86.2
2019-01-13T00:45:26.730Z,85.5
2019-01-13T01:00:38.873Z,85.3
2019-01-13T01:15:41.901Z,85.4
2019-01-13T01:31:03.192Z,85.5
2019-01-13T01:46:15.350Z,85.7
2019-01-13T02:01:27.583Z,85.3
2019-01-13T02:16:39.771Z,85.5
2019-01-13T02:31:50.524Z,85.2
2019-01-13T02:47:04.448Z,85.3
2019-01-13T03:02:16.467Z,86.3
2019-01-13T03:17:28.824Z,88.8
2019-01-13T03:32:33.091Z,87.5
2019-01-13T03:47:53.097Z,87.7
2019-01-13T04:03:05.459Z,87.3
2019-01-13T04:18:18.781Z,85.3
2019-01-13T04:33:29.981Z,85.9
2019-01-13T04:48:42.291Z,86
2019-01-13T05:03:54.490Z,86.8
2019-01-13T05:19:06.839Z,86.9
2019-01-13T05:34:19.030Z,84.6
2019-01-13T05:49:24.836Z,87.8
2019-01-13T06:04:43.572Z,89.3
2019-01-13T06:19:56.273Z,88.8
2019-01-13T06:35:08.015Z,88.4
2019-01-13T06:50:20.385Z,89.5
2019-01-13T07:05:32.526Z,88.1
2019-01-13T07:20:45.124Z,86.5
2019-01-13T07:35:57.151Z,84.7
2019-01-13T07:51:09.658Z,82.3
2019-01-13T08:06:17.048Z,83.2
2019-01-13T08:21:34.517Z,82
2019-01-13T08:36:46.940Z,79.7
2019-01-13T08:51:59.572Z,78.7
2019-01-13T09:07:12.208Z,77
2019-01-13T09:22:24.742Z,78.4
2019-01-13T09:37:37.462Z,77.8
2019-01-13T09:52:50.096Z,77.5
2019-01-13T10:08:02.788Z,77.7
2019-01-13T10:23:11.220Z,77.3
2019-01-13T10:38:28.610Z,77.2
2019-01-13T10:53:40.914Z,80.6
2019-01-13T11:08:53.490Z,81.5
2019-01-13T11:24:06.311Z,81.5
2019-01-13T11:39:18.919Z,81.1
2019-01-13T11:54:31.738Z,81.1
2019-01-13T12:09:44.554Z,81.5
2019-01-13T12:24:57.238Z,84
2019-01-13T12:40:06.493Z,85.9
2019-01-13T12:55:22.613Z,86.7
2019-01-13T13:10:35.430Z,85
2019-01-13T13:25:48.140Z,85.3
2019-01-13T13:40:50.936Z,85.9
2019-01-13T13:56:13.800Z,85.8
2019-01-13T14:11:26.667Z,83.9
2019-01-13T14:26:39.587Z,83.2
2019-01-13T14:41:53.526Z,83.9
2019-01-13T14:57:02.915Z,85
2019-01-13T15:12:18.215Z,86.8
2019-01-13T15:27:31.008Z,90.3
2019-01-13T15:42:43.888Z,91.8
2019-01-13T15:57:47.164Z,93.2
2019-01-13T16:13:09.280Z,92.9
2019-01-13T16:28:22.207Z,92.5
2019-01-13T16:43:34.777Z,92.2
2019-01-13T16:58:47.656Z,92.7
2019-01-13T17:14:02.953Z,92.7
2019-01-13T17:29:13.556Z,94.8
2019-01-13T17:44:26.802Z,95.6
2019-01-13T17:59:39.308Z,95.3
2019-01-13T18:14:42.719Z,97.9
2019-01-13T18:30:05.306Z,95.8
2019-01-13T18:45:18.198Z,95.8
2019-01-13T19:00:31.306Z,94.4
2019-01-13T19:15:44.924Z,93.1
2019-01-13T19:30:55.482Z,92.8
2019-01-13T19:46:11.189Z,90.7
2019-01-13T20:01:24.515Z,92.8
2019-01-13T20:16:37.802Z,77.7
2019-01-13T20:31:40.987Z,77.3
2019-01-13T20:47:04.003Z,79
2019-01-13T21:02:17.045Z,75.2
2019-01-13T21:17:30.160Z,77
2019-01-13T21:32:43.107Z,82.2
2019-01-13T21:47:52.482Z,81.4
2019-01-13T22:03:14.160Z,79.4
2019-01-13T22:18:21.361Z,83.6
2019-01-13T22:33:34.039Z,81.9
2019-01-13T22:48:37.078Z,77.4
2019-01-13T23:04:00.398Z,77
2019-01-13T23:19:12.764Z,76
2019-01-13T23:34:27.090Z,76.5
2019-01-13T23:49:38.768Z,81
